sensor_id;sensor_type;location;lat;lon;timestamp;P1;durP1;ratioP1;P2;durP2;ratioP2
37997;SDS011;24079;51.824;4.682;2023-06-24T06:36:25;17.38;;;10.98;;
37997;SDS011;24079;51.824;4.682;2023-06-24T06:38:50;20.80;;;11.23;;
37997;SDS011;24079;51.824;4.682;2023-06-24T06:41:16;13.35;;;10.30;;
37997;SDS011;24079;51.824;4.682;2023-06-24T06:43:42;18.85;;;11.00;;
37997;SDS011;24079;51.824;4.682;2023-06-24T06:46:08;19.33;;;11.05;;
37997;SDS011;24079;51.824;4.682;2023-06-24T06:48:34;17.35;;;10.43;;
37997;SDS011;24079;51.824;4.682;2023-06-24T06:50:59;14.45;;;9.77;;
37997;SDS011;24079;51.824;4.682;2023-06-24T06:53:25;15.57;;;11.27;;
37997;SDS011;24079;51.824;4.682;2023-06-24T06:55:51;15.57;;;10.75;;
37997;SDS011;24079;51.824;4.682;2023-06-24T06:58:16;16.25;;;11.15;;
37997;SDS011;24079;51.824;4.682;2023-06-24T07:00:42;18.00;;;10.55;;
37997;SDS011;24079;51.824;4.682;2023-06-24T07:03:09;23.35;;;11.13;;
37997;SDS011;24079;51.824;4.682;2023-06-24T07:05:35;17.20;;;10.55;;
37997;SDS011;24079;51.824;4.682;2023-06-24T07:08:03;18.15;;;10.95;;
37997;SDS011;24079;51.824;4.682;2023-06-24T07:10:32;15.57;;;10.52;;
37997;SDS011;24079;51.824;4.682;2023-06-24T07:12:57;14.60;;;10.32;;
37997;SDS011;24079;51.824;4.682;2023-06-24T07:15:24;14.43;;;10.85;;
37997;SDS011;24079;51.824;4.682;2023-06-24T07:17:50;20.63;;;11.65;;
37997;SDS011;24079;51.824;4.682;2023-06-24T07:20:16;20.15;;;11.73;;
37997;SDS011;24079;51.824;4.682;2023-06-24T07:22:41;19.75;;;12.00;;
37997;SDS011;24079;51.824;4.682;2023-06-24T07:25:07;16.38;;;11.05;;
37997;SDS011;24079;51.824;4.682;2023-06-24T07:27:33;19.02;;;11.70;;
37997;SDS011;24079;51.824;4.682;2023-06-24T07:29:58;18.85;;;11.73;;
37997;SDS011;24079;51.824;4.682;2023-06-24T07:32:24;20.00;;;12.02;;
37997;SDS011;24079;51.824;4.682;2023-06-24T07:34:50;16.23;;;10.85;;
37997;SDS011;24079;51.824;4.682;2023-06-24T07:37:15;16.92;;;11.20;;
37997;SDS011;24079;51.824;4.682;2023-06-24T07:39:41;16.67;;;11.13;;
37997;SDS011;24079;51.824;4.682;2023-06-24T07:42:07;16.08;;;11.65;;
37997;SDS011;24079;51.824;4.682;2023-06-24T07:44:32;18.45;;;12.00;;
37997;SDS011;24079;51.824;4.682;2023-06-24T07:46:58;19.45;;;13.27;;
37997;SDS011;24079;51.824;4.682;2023-06-24T07:49:24;18.27;;;11.15;;
37997;SDS011;24079;51.824;4.682;2023-06-24T07:51:50;20.13;;;12.00;;
37997;SDS011;24079;51.824;4.682;2023-06-24T07:54:16;20.63;;;12.27;;
37997;SDS011;24079;51.824;4.682;2023-06-24T07:56:42;21.13;;;11.70;;
37997;SDS011;24079;51.824;4.682;2023-06-24T07:59:08;18.10;;;11.32;;
37997;SDS011;24079;51.824;4.682;2023-06-24T08:01:33;17.92;;;11.50;;
37997;SDS011;24079;51.824;4.682;2023-06-24T08:03:59;21.40;;;11.73;;
37997;SDS011;24079;51.824;4.682;2023-06-24T08:06:24;16.25;;;11.45;;
37997;SDS011;24079;51.824;4.682;2023-06-24T08:08:50;15.95;;;11.05;;
37997;SDS011;24079;51.824;4.682;2023-06-24T08:11:16;16.80;;;11.38;;
37997;SDS011;24079;51.824;4.682;2023-06-24T08:13:42;16.63;;;9.88;;
37997;SDS011;24079;51.824;4.682;2023-06-24T08:16:07;17.23;;;10.20;;
37997;SDS011;24079;51.824;4.682;2023-06-24T08:18:33;17.65;;;11.38;;
37997;SDS011;24079;51.824;4.682;2023-06-24T08:20:59;19.13;;;11.45;;
37997;SDS011;24079;51.824;4.682;2023-06-24T08:23:26;16.27;;;10.27;;
37997;SDS011;24079;51.824;4.682;2023-06-24T08:25:52;19.15;;;10.73;;
37997;SDS011;24079;51.824;4.682;2023-06-24T08:28:18;19.20;;;12.00;;
37997;SDS011;24079;51.824;4.682;2023-06-24T08:30:44;16.40;;;10.95;;
37997;SDS011;24079;51.824;4.682;2023-06-24T08:33:10;16.05;;;10.55;;
37997;SDS011;24079;51.824;4.682;2023-06-24T08:35:36;17.65;;;10.60;;
37997;SDS011;24079;51.824;4.682;2023-06-24T08:38:02;16.55;;;10.70;;
37997;SDS011;24079;51.824;4.682;2023-06-24T08:40:28;17.40;;;10.68;;
37997;SDS011;24079;51.824;4.682;2023-06-24T08:42:54;17.50;;;11.35;;
37997;SDS011;24079;51.824;4.682;2023-06-24T08:45:21;14.93;;;10.43;;
37997;SDS011;24079;51.824;4.682;2023-06-24T08:47:47;16.52;;;10.90;;
37997;SDS011;24079;51.824;4.682;2023-06-24T08:50:15;13.00;;;8.85;;
37997;SDS011;24079;51.824;4.682;2023-06-24T08:52:44;12.65;;;9.77;;
37997;SDS011;24079;51.824;4.682;2023-06-24T10:32:07;20.63;;;15.85;;
37997;SDS011;24079;51.824;4.682;2023-06-24T10:39:40;20.85;;;14.18;;
37997;SDS011;24079;51.824;4.682;2023-06-24T10:44:55;18.00;;;12.90;;
37997;SDS011;24079;51.824;4.682;2023-06-24T10:47:22;18.63;;;13.90;;
37997;SDS011;24079;51.824;4.682;2023-06-24T10:49:48;18.70;;;13.90;;
37997;SDS011;24079;51.824;4.682;2023-06-24T10:52:15;15.95;;;11.73;;
37997;SDS011;24079;51.824;4.682;2023-06-24T10:54:44;14.15;;;9.80;;
37997;SDS011;24079;51.824;4.682;2023-06-24T10:57:11;19.52;;;11.57;;
37997;SDS011;24079;51.824;4.682;2023-06-24T10:59:41;21.10;;;13.63;;
37997;SDS011;24079;51.824;4.682;2023-06-24T11:02:08;17.95;;;13.20;;
37997;SDS011;24079;51.824;4.682;2023-06-24T11:04:47;16.67;;;11.00;;
37997;SDS011;24079;51.824;4.682;2023-06-24T11:07:22;15.05;;;10.35;;
37997;SDS011;24079;51.824;4.682;2023-06-24T11:12:16;12.90;;;6.03;;
37997;SDS011;24079;51.824;4.682;2023-06-24T11:14:42;8.38;;;5.57;;
37997;SDS011;24079;51.824;4.682;2023-06-24T11:17:08;11.77;;;7.57;;
37997;SDS011;24079;51.824;4.682;2023-06-24T11:19:34;11.15;;;7.68;;
37997;SDS011;24079;51.824;4.682;2023-06-24T11:22:04;14.18;;;6.10;;
37997;SDS011;24079;51.824;4.682;2023-06-24T11:24:30;13.30;;;7.72;;
37997;SDS011;24079;51.824;4.682;2023-06-24T11:26:56;7.75;;;5.65;;
37997;SDS011;24079;51.824;4.682;2023-06-24T11:29:22;11.35;;;6.80;;
37997;SDS011;24079;51.824;4.682;2023-06-24T11:31:48;14.50;;;8.85;;
37997;SDS011;24079;51.824;4.682;2023-06-24T11:34:15;11.60;;;7.75;;
37997;SDS011;24079;51.824;4.682;2023-06-24T11:36:41;9.48;;;5.93;;
37997;SDS011;24079;51.824;4.682;2023-06-24T11:39:07;11.63;;;6.65;;
37997;SDS011;24079;51.824;4.682;2023-06-24T11:41:32;12.23;;;7.22;;
37997;SDS011;24079;51.824;4.682;2023-06-24T11:43:58;7.32;;;4.68;;
37997;SDS011;24079;51.824;4.682;2023-06-24T11:46:25;6.70;;;3.72;;
37997;SDS011;24079;51.824;4.682;2023-06-24T11:48:51;7.03;;;5.80;;
37997;SDS011;24079;51.824;4.682;2023-06-24T11:51:17;8.35;;;5.85;;
37997;SDS011;24079;51.824;4.682;2023-06-24T11:53:43;9.10;;;5.65;;
37997;SDS011;24079;51.824;4.682;2023-06-24T11:56:12;8.10;;;5.82;;
37997;SDS011;24079;51.824;4.682;2023-06-24T11:58:38;7.90;;;5.75;;
37997;SDS011;24079;51.824;4.682;2023-06-24T12:01:07;9.70;;;5.68;;
37997;SDS011;24079;51.824;4.682;2023-06-24T12:03:33;14.57;;;9.50;;
37997;SDS011;24079;51.824;4.682;2023-06-24T12:05:59;17.73;;;12.18;;
37997;SDS011;24079;51.824;4.682;2023-06-24T12:08:25;17.92;;;10.90;;
37997;SDS011;24079;51.824;4.682;2023-06-24T12:10:51;17.35;;;8.55;;
37997;SDS011;24079;51.824;4.682;2023-06-24T12:13:17;14.43;;;9.07;;
37997;SDS011;24079;51.824;4.682;2023-06-24T12:15:43;13.82;;;8.10;;
37997;SDS011;24079;51.824;4.682;2023-06-24T12:18:09;12.50;;;8.07;;
37997;SDS011;24079;51.824;4.682;2023-06-24T12:20:35;15.73;;;8.55;;
37997;SDS011;24079;51.824;4.682;2023-06-24T12:23:04;13.40;;;9.70;;
37997;SDS011;24079;51.824;4.682;2023-06-24T12:25:31;14.88;;;9.73;;
37997;SDS011;24079;51.824;4.682;2023-06-24T12:27:56;14.60;;;9.85;;
37997;SDS011;24079;51.824;4.682;2023-06-24T12:30:24;13.65;;;8.18;;
37997;SDS011;24079;51.824;4.682;2023-06-24T12:32:50;12.88;;;7.78;;
37997;SDS011;24079;51.824;4.682;2023-06-24T12:35:16;13.38;;;8.68;;
37997;SDS011;24079;51.824;4.682;2023-06-24T12:37:42;12.18;;;8.93;;
37997;SDS011;24079;51.824;4.682;2023-06-24T12:40:10;10.55;;;7.75;;
37997;SDS011;24079;51.824;4.682;2023-06-24T12:42:36;16.63;;;10.32;;
37997;SDS011;24079;51.824;4.682;2023-06-24T12:45:02;11.35;;;7.40;;
37997;SDS011;24079;51.824;4.682;2023-06-24T12:47:29;12.88;;;9.30;;
37997;SDS011;24079;51.824;4.682;2023-06-24T12:49:55;10.55;;;7.50;;
37997;SDS011;24079;51.824;4.682;2023-06-24T12:52:21;10.52;;;6.97;;
37997;SDS011;24079;51.824;4.682;2023-06-24T12:54:47;11.43;;;7.43;;
37997;SDS011;24079;51.824;4.682;2023-06-24T12:57:14;13.30;;;7.95;;
37997;SDS011;24079;51.824;4.682;2023-06-24T12:59:41;12.20;;;7.88;;
37997;SDS011;24079;51.824;4.682;2023-06-24T13:02:07;14.38;;;7.82;;
37997;SDS011;24079;51.824;4.682;2023-06-24T13:04:33;10.30;;;6.75;;
37997;SDS011;24079;51.824;4.682;2023-06-24T13:06:59;13.38;;;6.72;;
37997;SDS011;24079;51.824;4.682;2023-06-24T13:09:25;8.85;;;5.38;;
37997;SDS011;24079;51.824;4.682;2023-06-24T13:11:51;8.70;;;5.75;;
37997;SDS011;24079;51.824;4.682;2023-06-24T13:14:18;11.40;;;6.45;;
37997;SDS011;24079;51.824;4.682;2023-06-24T13:16:44;9.88;;;5.97;;
37997;SDS011;24079;51.824;4.682;2023-06-24T13:19:10;8.85;;;6.28;;
37997;SDS011;24079;51.824;4.682;2023-06-24T13:21:37;7.40;;;5.10;;
37997;SDS011;24079;51.824;4.682;2023-06-24T13:24:03;9.82;;;5.45;;
37997;SDS011;24079;51.824;4.682;2023-06-24T13:26:29;10.43;;;5.88;;
37997;SDS011;24079;51.824;4.682;2023-06-24T13:28:55;8.85;;;5.00;;
37997;SDS011;24079;51.824;4.682;2023-06-24T13:31:21;8.90;;;5.82;;
37997;SDS011;24079;51.824;4.682;2023-06-24T13:33:48;12.52;;;7.07;;
37997;SDS011;24079;51.824;4.682;2023-06-24T13:36:33;12.40;;;6.15;;
37997;SDS011;24079;51.824;4.682;2023-06-24T13:39:06;11.90;;;6.53;;
37997;SDS011;24079;51.824;4.682;2023-06-24T13:41:33;11.73;;;6.00;;
37997;SDS011;24079;51.824;4.682;2023-06-24T13:44:00;9.85;;;5.30;;
37997;SDS011;24079;51.824;4.682;2023-06-24T13:46:27;9.02;;;5.72;;
37997;SDS011;24079;51.824;4.682;2023-06-24T13:48:54;10.18;;;6.63;;
37997;SDS011;24079;51.824;4.682;2023-06-24T13:51:20;12.48;;;6.50;;
37997;SDS011;24079;51.824;4.682;2023-06-24T13:53:50;10.25;;;7.10;;
37997;SDS011;24079;51.824;4.682;2023-06-24T13:56:17;12.98;;;6.63;;
37997;SDS011;24079;51.824;4.682;2023-06-24T13:58:44;13.30;;;7.72;;
37997;SDS011;24079;51.824;4.682;2023-06-24T14:01:10;10.32;;;6.80;;
37997;SDS011;24079;51.824;4.682;2023-06-24T14:03:37;9.70;;;5.60;;
37997;SDS011;24079;51.824;4.682;2023-06-24T14:06:03;7.78;;;5.63;;
37997;SDS011;24079;51.824;4.682;2023-06-24T14:08:30;10.55;;;6.55;;
37997;SDS011;24079;51.824;4.682;2023-06-24T14:10:58;8.82;;;6.93;;
37997;SDS011;24079;51.824;4.682;2023-06-24T14:13:25;10.63;;;7.35;;
37997;SDS011;24079;51.824;4.682;2023-06-24T14:15:52;11.07;;;8.15;;
37997;SDS011;24079;51.824;4.682;2023-06-24T14:18:19;12.77;;;7.47;;
37997;SDS011;24079;51.824;4.682;2023-06-24T14:20:45;12.43;;;7.95;;
37997;SDS011;24079;51.824;4.682;2023-06-24T14:23:11;14.30;;;7.90;;
37997;SDS011;24079;51.824;4.682;2023-06-24T14:25:37;13.80;;;7.43;;
37997;SDS011;24079;51.824;4.682;2023-06-24T14:28:04;11.60;;;6.10;;
37997;SDS011;24079;51.824;4.682;2023-06-24T14:30:30;10.73;;;5.30;;
37997;SDS011;24079;51.824;4.682;2023-06-24T14:32:57;12.02;;;7.03;;
37997;SDS011;24079;51.824;4.682;2023-06-24T14:35:23;11.63;;;6.45;;
37997;SDS011;24079;51.824;4.682;2023-06-24T14:37:48;9.30;;;6.05;;
37997;SDS011;24079;51.824;4.682;2023-06-24T14:40:14;11.77;;;8.15;;
37997;SDS011;24079;51.824;4.682;2023-06-24T14:42:40;13.80;;;7.60;;
37997;SDS011;24079;51.824;4.682;2023-06-24T14:45:05;14.75;;;7.07;;
37997;SDS011;24079;51.824;4.682;2023-06-24T14:47:31;13.80;;;7.78;;
37997;SDS011;24079;51.824;4.682;2023-06-24T14:49:57;13.68;;;6.82;;
37997;SDS011;24079;51.824;4.682;2023-06-24T14:52:23;10.93;;;6.78;;
37997;SDS011;24079;51.824;4.682;2023-06-24T14:54:49;14.95;;;6.75;;
37997;SDS011;24079;51.824;4.682;2023-06-24T14:57:15;11.77;;;7.30;;
37997;SDS011;24079;51.824;4.682;2023-06-24T14:59:41;11.43;;;7.72;;
37997;SDS011;24079;51.824;4.682;2023-06-24T15:02:07;14.32;;;7.80;;
37997;SDS011;24079;51.824;4.682;2023-06-24T15:04:35;13.57;;;8.73;;
37997;SDS011;24079;51.824;4.682;2023-06-24T15:07:01;13.77;;;8.70;;
37997;SDS011;24079;51.824;4.682;2023-06-24T15:09:27;12.52;;;8.80;;
37997;SDS011;24079;51.824;4.682;2023-06-24T15:11:53;14.55;;;7.13;;
37997;SDS011;24079;51.824;4.682;2023-06-24T15:14:19;11.07;;;7.28;;
37997;SDS011;24079;51.824;4.682;2023-06-24T15:16:45;11.57;;;7.97;;
37997;SDS011;24079;51.824;4.682;2023-06-24T15:19:12;11.10;;;7.00;;
37997;SDS011;24079;51.824;4.682;2023-06-24T15:21:38;14.07;;;7.05;;
37997;SDS011;24079;51.824;4.682;2023-06-24T15:24:04;16.80;;;8.52;;
37997;SDS011;24079;51.824;4.682;2023-06-24T15:26:30;15.07;;;7.47;;
37997;SDS011;24079;51.824;4.682;2023-06-24T15:28:59;10.60;;;6.80;;
37997;SDS011;24079;51.824;4.682;2023-06-24T15:31:25;13.23;;;7.47;;
37997;SDS011;24079;51.824;4.682;2023-06-24T15:33:51;10.95;;;8.07;;
37997;SDS011;24079;51.824;4.682;2023-06-24T15:36:16;13.25;;;8.77;;
37997;SDS011;24079;51.824;4.682;2023-06-24T15:43:53;11.77;;;7.95;;
37997;SDS011;24079;51.824;4.682;2023-06-24T15:46:19;14.63;;;9.40;;
37997;SDS011;24079;51.824;4.682;2023-06-24T15:48:47;14.20;;;10.02;;
37997;SDS011;24079;51.824;4.682;2023-06-24T15:51:13;15.93;;;9.13;;
37997;SDS011;24079;51.824;4.682;2023-06-24T15:53:39;14.05;;;8.55;;
37997;SDS011;24079;51.824;4.682;2023-06-24T15:56:05;11.48;;;7.15;;
37997;SDS011;24079;51.824;4.682;2023-06-24T15:58:31;14.90;;;8.60;;
37997;SDS011;24079;51.824;4.682;2023-06-24T16:00:57;9.93;;;7.20;;
37997;SDS011;24079;51.824;4.682;2023-06-24T16:03:23;12.95;;;8.23;;
37997;SDS011;24079;51.824;4.682;2023-06-24T16:05:48;12.70;;;7.55;;
37997;SDS011;24079;51.824;4.682;2023-06-24T16:08:14;13.10;;;7.15;;
37997;SDS011;24079;51.824;4.682;2023-06-24T16:10:40;12.85;;;8.50;;
37997;SDS011;24079;51.824;4.682;2023-06-24T16:13:05;11.68;;;7.97;;
37997;SDS011;24079;51.824;4.682;2023-06-24T16:15:31;12.85;;;7.45;;
37997;SDS011;24079;51.824;4.682;2023-06-24T16:17:57;11.63;;;7.68;;
37997;SDS011;24079;51.824;4.682;2023-06-24T16:20:23;10.40;;;7.50;;
37997;SDS011;24079;51.824;4.682;2023-06-24T16:22:49;12.05;;;7.40;;
37997;SDS011;24079;51.824;4.682;2023-06-24T16:25:15;10.57;;;7.43;;
37997;SDS011;24079;51.824;4.682;2023-06-24T16:27:41;9.50;;;6.95;;
37997;SDS011;24079;51.824;4.682;2023-06-24T16:30:07;10.82;;;6.82;;
37997;SDS011;24079;51.824;4.682;2023-06-24T16:32:34;10.40;;;6.63;;
37997;SDS011;24079;51.824;4.682;2023-06-24T16:35:00;12.52;;;8.70;;
37997;SDS011;24079;51.824;4.682;2023-06-24T16:37:27;9.80;;;6.53;;
37997;SDS011;24079;51.824;4.682;2023-06-24T16:39:53;14.98;;;7.82;;
37997;SDS011;24079;51.824;4.682;2023-06-24T16:42:19;13.65;;;7.22;;
37997;SDS011;24079;51.824;4.682;2023-06-24T16:44:45;12.23;;;7.20;;
37997;SDS011;24079;51.824;4.682;2023-06-24T16:47:12;11.00;;;7.03;;
37997;SDS011;24079;51.824;4.682;2023-06-24T16:49:38;9.57;;;7.00;;
37997;SDS011;24079;51.824;4.682;2023-06-24T16:52:05;13.65;;;8.23;;
37997;SDS011;24079;51.824;4.682;2023-06-24T16:54:34;14.20;;;9.07;;
37997;SDS011;24079;51.824;4.682;2023-06-24T16:57:01;14.25;;;8.95;;
37997;SDS011;24079;51.824;4.682;2023-06-24T16:59:30;12.68;;;8.90;;
37997;SDS011;24079;51.824;4.682;2023-06-24T17:15:43;12.85;;;8.00;;
37997;SDS011;24079;51.824;4.682;2023-06-24T17:18:08;10.38;;;7.15;;
37997;SDS011;24079;51.824;4.682;2023-06-24T17:20:34;12.43;;;7.88;;
37997;SDS011;24079;51.824;4.682;2023-06-24T17:22:59;12.50;;;7.68;;
37997;SDS011;24079;51.824;4.682;2023-06-24T17:25:25;17.08;;;8.15;;
37997;SDS011;24079;51.824;4.682;2023-06-24T17:27:51;11.68;;;7.25;;
37997;SDS011;24079;51.824;4.682;2023-06-24T17:30:17;12.23;;;6.43;;
37997;SDS011;24079;51.824;4.682;2023-06-24T17:32:42;10.95;;;6.72;;
37997;SDS011;24079;51.824;4.682;2023-06-24T17:35:08;10.43;;;7.30;;
37997;SDS011;24079;51.824;4.682;2023-06-24T17:39:59;10.55;;;6.40;;
37997;SDS011;24079;51.824;4.682;2023-06-24T17:42:25;16.35;;;8.52;;
37997;SDS011;24079;51.824;4.682;2023-06-24T17:44:50;12.73;;;8.90;;
37997;SDS011;24079;51.824;4.682;2023-06-24T17:47:17;14.45;;;9.50;;
37997;SDS011;24079;51.824;4.682;2023-06-24T17:49:43;14.32;;;8.70;;
37997;SDS011;24079;51.824;4.682;2023-06-24T17:52:09;14.05;;;9.82;;
37997;SDS011;24079;51.824;4.682;2023-06-24T17:54:35;14.15;;;8.75;;
37997;SDS011;24079;51.824;4.682;2023-06-24T17:57:03;15.80;;;9.88;;
37997;SDS011;24079;51.824;4.682;2023-06-24T17:59:28;13.63;;;9.68;;
37997;SDS011;24079;51.824;4.682;2023-06-24T18:01:54;15.32;;;9.45;;
37997;SDS011;24079;51.824;4.682;2023-06-24T18:04:20;15.80;;;10.35;;
37997;SDS011;24079;51.824;4.682;2023-06-24T18:06:46;14.63;;;10.57;;
37997;SDS011;24079;51.824;4.682;2023-06-24T18:09:11;14.77;;;9.90;;
37997;SDS011;24079;51.824;4.682;2023-06-24T18:11:37;14.25;;;8.75;;
37997;SDS011;24079;51.824;4.682;2023-06-24T18:14:03;15.65;;;10.27;;
37997;SDS011;24079;51.824;4.682;2023-06-24T18:16:28;14.48;;;9.77;;
37997;SDS011;24079;51.824;4.682;2023-06-24T18:18:54;10.05;;;7.35;;
37997;SDS011;24079;51.824;4.682;2023-06-24T18:21:20;12.15;;;8.43;;
37997;SDS011;24079;51.824;4.682;2023-06-24T18:23:45;12.30;;;7.43;;
37997;SDS011;24079;51.824;4.682;2023-06-24T18:26:11;13.55;;;8.18;;
37997;SDS011;24079;51.824;4.682;2023-06-24T18:28:38;18.05;;;9.77;;
37997;SDS011;24079;51.824;4.682;2023-06-24T18:31:04;12.68;;;8.15;;
37997;SDS011;24079;51.824;4.682;2023-06-24T18:33:30;15.07;;;8.63;;
37997;SDS011;24079;51.824;4.682;2023-06-24T18:35:57;12.93;;;8.40;;
37997;SDS011;24079;51.824;4.682;2023-06-24T18:38:23;9.07;;;7.80;;
37997;SDS011;24079;51.824;4.682;2023-06-24T18:40:49;11.10;;;7.43;;
37997;SDS011;24079;51.824;4.682;2023-06-24T18:43:15;13.80;;;9.10;;
37997;SDS011;24079;51.824;4.682;2023-06-24T18:45:41;14.48;;;9.60;;
37997;SDS011;24079;51.824;4.682;2023-06-24T18:48:07;10.65;;;7.63;;
37997;SDS011;24079;51.824;4.682;2023-06-24T18:50:33;11.30;;;7.15;;
37997;SDS011;24079;51.824;4.682;2023-06-24T18:52:59;9.25;;;7.13;;
37997;SDS011;24079;51.824;4.682;2023-06-24T18:55:25;13.90;;;9.23;;
37997;SDS011;24079;51.824;4.682;2023-06-24T18:57:50;9.13;;;6.72;;
37997;SDS011;24079;51.824;4.682;2023-06-24T19:00:16;14.07;;;7.90;;
37997;SDS011;24079;51.824;4.682;2023-06-24T19:02:42;9.77;;;6.75;;
37997;SDS011;24079;51.824;4.682;2023-06-24T19:05:08;13.18;;;7.65;;
37997;SDS011;24079;51.824;4.682;2023-06-24T19:07:35;10.07;;;6.60;;
37997;SDS011;24079;51.824;4.682;2023-06-24T19:10:01;13.38;;;6.95;;
37997;SDS011;24079;51.824;4.682;2023-06-24T19:12:27;11.55;;;7.10;;
37997;SDS011;24079;51.824;4.682;2023-06-24T19:14:53;11.77;;;8.38;;
37997;SDS011;24079;51.824;4.682;2023-06-24T19:17:19;12.18;;;8.25;;
37997;SDS011;24079;51.824;4.682;2023-06-24T19:19:44;11.65;;;8.82;;
37997;SDS011;24079;51.824;4.682;2023-06-24T19:22:10;14.38;;;8.60;;
37997;SDS011;24079;51.824;4.682;2023-06-24T19:24:35;12.55;;;8.45;;
37997;SDS011;24079;51.824;4.682;2023-06-24T19:27:02;12.43;;;7.80;;
37997;SDS011;24079;51.824;4.682;2023-06-24T19:29:28;10.73;;;7.20;;
37997;SDS011;24079;51.824;4.682;2023-06-24T19:31:54;13.18;;;7.68;;
37997;SDS011;24079;51.824;4.682;2023-06-24T19:34:20;9.70;;;8.00;;
37997;SDS011;24079;51.824;4.682;2023-06-24T19:36:46;10.68;;;7.53;;
37997;SDS011;24079;51.824;4.682;2023-06-24T19:39:12;12.85;;;7.88;;
37997;SDS011;24079;51.824;4.682;2023-06-24T19:41:38;11.10;;;6.75;;
37997;SDS011;24079;51.824;4.682;2023-06-24T19:44:04;9.18;;;7.47;;
37997;SDS011;24079;51.824;4.682;2023-06-24T19:46:34;13.43;;;7.88;;
37997;SDS011;24079;51.824;4.682;2023-06-24T19:49:00;14.00;;;7.90;;
37997;SDS011;24079;51.824;4.682;2023-06-24T19:51:29;11.45;;;7.22;;
37997;SDS011;24079;51.824;4.682;2023-06-24T19:53:55;11.73;;;7.07;;
37997;SDS011;24079;51.824;4.682;2023-06-24T19:56:21;13.63;;;7.78;;
37997;SDS011;24079;51.824;4.682;2023-06-24T19:58:47;14.18;;;8.23;;
37997;SDS011;24079;51.824;4.682;2023-06-24T20:01:12;11.73;;;7.57;;
37997;SDS011;24079;51.824;4.682;2023-06-24T20:03:38;9.07;;;6.70;;
37997;SDS011;24079;51.824;4.682;2023-06-24T20:06:04;9.43;;;6.80;;
37997;SDS011;24079;51.824;4.682;2023-06-24T20:08:30;9.90;;;7.65;;
37997;SDS011;24079;51.824;4.682;2023-06-24T20:10:55;11.45;;;7.85;;
37997;SDS011;24079;51.824;4.682;2023-06-24T20:13:21;10.25;;;8.00;;
37997;SDS011;24079;51.824;4.682;2023-06-24T20:15:47;11.40;;;8.10;;
37997;SDS011;24079;51.824;4.682;2023-06-24T20:18:13;12.00;;;7.50;;
37997;SDS011;24079;51.824;4.682;2023-06-24T20:20:43;10.80;;;7.20;;
37997;SDS011;24079;51.824;4.682;2023-06-24T20:23:09;12.57;;;8.52;;
37997;SDS011;24079;51.824;4.682;2023-06-24T20:25:35;13.85;;;10.10;;
37997;SDS011;24079;51.824;4.682;2023-06-24T20:28:00;13.32;;;9.90;;
37997;SDS011;24079;51.824;4.682;2023-06-24T20:30:26;14.57;;;9.70;;
37997;SDS011;24079;51.824;4.682;2023-06-24T20:32:52;15.48;;;9.20;;
37997;SDS011;24079;51.824;4.682;2023-06-24T20:35:17;17.83;;;10.10;;
37997;SDS011;24079;51.824;4.682;2023-06-24T20:37:43;11.90;;;8.85;;
37997;SDS011;24079;51.824;4.682;2023-06-24T20:40:09;14.55;;;9.02;;
37997;SDS011;24079;51.824;4.682;2023-06-24T20:42:35;14.98;;;10.02;;
37997;SDS011;24079;51.824;4.682;2023-06-24T20:45:01;19.83;;;10.95;;
37997;SDS011;24079;51.824;4.682;2023-06-24T20:47:26;14.32;;;9.57;;
37997;SDS011;24079;51.824;4.682;2023-06-24T20:49:52;16.98;;;10.02;;
37997;SDS011;24079;51.824;4.682;2023-06-24T20:52:19;14.57;;;9.00;;
37997;SDS011;24079;51.824;4.682;2023-06-24T20:54:45;13.93;;;9.55;;
37997;SDS011;24079;51.824;4.682;2023-06-24T20:57:10;11.73;;;9.57;;
37997;SDS011;24079;51.824;4.682;2023-06-24T20:59:36;15.50;;;10.52;;
37997;SDS011;24079;51.824;4.682;2023-06-24T21:02:02;16.55;;;10.80;;
37997;SDS011;24079;51.824;4.682;2023-06-24T21:04:27;21.15;;;12.70;;
37997;SDS011;24079;51.824;4.682;2023-06-24T21:06:53;18.38;;;10.77;;
37997;SDS011;24079;51.824;4.682;2023-06-24T21:09:19;14.35;;;9.65;;
37997;SDS011;24079;51.824;4.682;2023-06-24T21:11:44;17.60;;;10.82;;
37997;SDS011;24079;51.824;4.682;2023-06-24T21:14:10;17.95;;;10.48;;
37997;SDS011;24079;51.824;4.682;2023-06-24T21:16:35;15.18;;;9.70;;
37997;SDS011;24079;51.824;4.682;2023-06-24T21:19:01;13.00;;;9.45;;
37997;SDS011;24079;51.824;4.682;2023-06-24T21:21:27;16.13;;;10.77;;
37997;SDS011;24079;51.824;4.682;2023-06-24T21:23:53;15.10;;;10.27;;
37997;SDS011;24079;51.824;4.682;2023-06-24T21:26:19;13.07;;;10.13;;
37997;SDS011;24079;51.824;4.682;2023-06-24T21:28:44;16.95;;;10.38;;
37997;SDS011;24079;51.824;4.682;2023-06-24T21:31:10;12.88;;;10.05;;
37997;SDS011;24079;51.824;4.682;2023-06-24T21:33:36;11.90;;;8.70;;
37997;SDS011;24079;51.824;4.682;2023-06-24T21:36:02;17.60;;;9.73;;
37997;SDS011;24079;51.824;4.682;2023-06-24T21:38:28;15.73;;;10.25;;
37997;SDS011;24079;51.824;4.682;2023-06-24T21:40:53;18.48;;;12.18;;
37997;SDS011;24079;51.824;4.682;2023-06-24T21:43:19;28.90;;;17.67;;
37997;SDS011;24079;51.824;4.682;2023-06-24T21:45:45;26.67;;;16.25;;
37997;SDS011;24079;51.824;4.682;2023-06-24T21:48:11;18.65;;;13.10;;
37997;SDS011;24079;51.824;4.682;2023-06-24T21:50:36;13.10;;;10.02;;
37997;SDS011;24079;51.824;4.682;2023-06-24T21:53:02;12.70;;;9.90;;
37997;SDS011;24079;51.824;4.682;2023-06-24T21:55:28;15.80;;;11.13;;
37997;SDS011;24079;51.824;4.682;2023-06-24T21:57:53;22.25;;;10.93;;
37997;SDS011;24079;51.824;4.682;2023-06-24T22:00:19;13.40;;;10.30;;
37997;SDS011;24079;51.824;4.682;2023-06-24T22:02:45;24.30;;;11.93;;
37997;SDS011;24079;51.824;4.682;2023-06-24T22:05:11;14.90;;;11.05;;
37997;SDS011;24079;51.824;4.682;2023-06-24T22:07:37;20.92;;;12.60;;
37997;SDS011;24079;51.824;4.682;2023-06-24T22:10:02;17.05;;;12.52;;
37997;SDS011;24079;51.824;4.682;2023-06-24T22:12:28;15.95;;;10.80;;
37997;SDS011;24079;51.824;4.682;2023-06-24T22:14:54;14.98;;;11.32;;
37997;SDS011;24079;51.824;4.682;2023-06-24T22:17:19;14.68;;;11.15;;
37997;SDS011;24079;51.824;4.682;2023-06-24T22:19:45;15.32;;;11.73;;
37997;SDS011;24079;51.824;4.682;2023-06-24T22:22:10;14.05;;;10.07;;
37997;SDS011;24079;51.824;4.682;2023-06-24T22:24:36;11.75;;;9.55;;
37997;SDS011;24079;51.824;4.682;2023-06-24T22:27:02;17.67;;;11.52;;
37997;SDS011;24079;51.824;4.682;2023-06-24T22:29:28;18.90;;;12.20;;
37997;SDS011;24079;51.824;4.682;2023-06-24T22:31:53;17.33;;;11.90;;
37997;SDS011;24079;51.824;4.682;2023-06-24T22:34:19;18.80;;;13.20;;
37997;SDS011;24079;51.824;4.682;2023-06-24T22:36:44;19.48;;;13.48;;
37997;SDS011;24079;51.824;4.682;2023-06-24T22:39:10;24.90;;;16.63;;
37997;SDS011;24079;51.824;4.682;2023-06-24T22:41:37;24.65;;;16.80;;
37997;SDS011;24079;51.824;4.682;2023-06-24T22:44:02;19.85;;;14.02;;
37997;SDS011;24079;51.824;4.682;2023-06-24T22:46:28;17.48;;;12.50;;
37997;SDS011;24079;51.824;4.682;2023-06-24T22:48:54;22.05;;;13.05;;
37997;SDS011;24079;51.824;4.682;2023-06-24T22:51:19;20.10;;;13.40;;
37997;SDS011;24079;51.824;4.682;2023-06-24T22:53:46;16.05;;;11.75;;
37997;SDS011;24079;51.824;4.682;2023-06-24T22:56:12;16.70;;;11.63;;
37997;SDS011;24079;51.824;4.682;2023-06-24T22:58:38;19.15;;;11.88;;
37997;SDS011;24079;51.824;4.682;2023-06-24T23:01:03;15.27;;;9.90;;
37997;SDS011;24079;51.824;4.682;2023-06-24T23:03:29;16.20;;;11.00;;
37997;SDS011;24079;51.824;4.682;2023-06-24T23:05:56;16.45;;;11.32;;
37997;SDS011;24079;51.824;4.682;2023-06-24T23:08:22;18.65;;;10.45;;